sensor_id;sensor_type;location;lat;lon;timestamp;P1;durP1;ratioP1;P2;durP2;ratioP2
22571;SDS011;11452;53.368;14.658;2022-12-07T00:00:34;7.80;;;5.00;;
22571;SDS011;11452;53.368;14.658;2022-12-07T00:05:39;7.43;;;5.07;;
22571;SDS011;11452;53.368;14.658;2022-12-07T00:10:44;7.17;;;4.67;;
22571;SDS011;11452;53.368;14.658;2022-12-07T00:15:50;6.87;;;4.87;;
22571;SDS011;11452;53.368;14.658;2022-12-07T00:21:08;7.37;;;4.73;;
22571;SDS011;11452;53.368;14.658;2022-12-07T00:26:10;6.67;;;5.03;;
22571;SDS011;11452;53.368;14.658;2022-12-07T00:31:18;7.90;;;4.53;;
22571;SDS011;11452;53.368;14.658;2022-12-07T00:36:26;6.63;;;4.23;;
22571;SDS011;11452;53.368;14.658;2022-12-07T00:41:32;5.20;;;4.23;;
22571;SDS011;11452;53.368;14.658;2022-12-07T00:46:37;6.43;;;4.50;;
22571;SDS011;11452;53.368;14.658;2022-12-07T00:51:43;5.27;;;4.33;;
22571;SDS011;11452;53.368;14.658;2022-12-07T00:56:48;8.03;;;5.40;;
22571;SDS011;11452;53.368;14.658;2022-12-07T01:01:53;6.67;;;5.47;;
22571;SDS011;11452;53.368;14.658;2022-12-07T01:06:59;8.47;;;5.87;;
22571;SDS011;11452;53.368;14.658;2022-12-07T01:12:05;7.20;;;5.23;;
22571;SDS011;11452;53.368;14.658;2022-12-07T01:17:10;6.70;;;5.57;;
22571;SDS011;11452;53.368;14.658;2022-12-07T01:22:16;6.73;;;4.90;;
22571;SDS011;11452;53.368;14.658;2022-12-07T01:27:21;5.27;;;4.63;;
22571;SDS011;11452;53.368;14.658;2022-12-07T01:32:27;6.13;;;5.07;;
22571;SDS011;11452;53.368;14.658;2022-12-07T01:37:36;7.27;;;5.67;;
22571;SDS011;11452;53.368;14.658;2022-12-07T01:42:42;6.33;;;4.50;;
22571;SDS011;11452;53.368;14.658;2022-12-07T01:47:53;6.57;;;4.57;;
22571;SDS011;11452;53.368;14.658;2022-12-07T01:52:56;5.20;;;4.03;;
22571;SDS011;11452;53.368;14.658;2022-12-07T01:58:03;6.83;;;4.40;;
22571;SDS011;11452;53.368;14.658;2022-12-07T02:03:22;5.57;;;3.80;;
22571;SDS011;11452;53.368;14.658;2022-12-07T02:08:42;6.17;;;4.37;;
22571;SDS011;11452;53.368;14.658;2022-12-07T02:13:48;5.20;;;3.80;;
22571;SDS011;11452;53.368;14.658;2022-12-07T02:29:22;4.43;;;3.60;;
22571;SDS011;11452;53.368;14.658;2022-12-07T02:34:42;5.03;;;3.20;;
22571;SDS011;11452;53.368;14.658;2022-12-07T02:39:56;4.57;;;3.37;;
22571;SDS011;11452;53.368;14.658;2022-12-07T02:44:59;4.27;;;3.53;;
22571;SDS011;11452;53.368;14.658;2022-12-07T02:50:06;4.70;;;3.13;;
22571;SDS011;11452;53.368;14.658;2022-12-07T02:55:23;3.90;;;3.47;;
22571;SDS011;11452;53.368;14.658;2022-12-07T03:00:29;4.20;;;3.30;;
22571;SDS011;11452;53.368;14.658;2022-12-07T03:05:48;4.97;;;3.70;;
22571;SDS011;11452;53.368;14.658;2022-12-07T03:11:15;5.30;;;3.63;;
22571;SDS011;11452;53.368;14.658;2022-12-07T03:16:28;5.77;;;3.40;;
22571;SDS011;11452;53.368;14.658;2022-12-07T03:21:41;4.97;;;3.13;;
22571;SDS011;11452;53.368;14.658;2022-12-07T03:26:46;4.33;;;3.53;;
22571;SDS011;11452;53.368;14.658;2022-12-07T03:31:58;5.67;;;4.23;;
22571;SDS011;11452;53.368;14.658;2022-12-07T03:37:17;5.57;;;4.10;;
22571;SDS011;11452;53.368;14.658;2022-12-07T03:42:24;8.00;;;4.13;;
22571;SDS011;11452;53.368;14.658;2022-12-07T03:47:31;4.90;;;3.70;;
22571;SDS011;11452;53.368;14.658;2022-12-07T03:52:49;5.80;;;4.33;;
22571;SDS011;11452;53.368;14.658;2022-12-07T03:57:56;6.17;;;4.23;;
22571;SDS011;11452;53.368;14.658;2022-12-07T04:03:04;5.63;;;4.43;;
22571;SDS011;11452;53.368;14.658;2022-12-07T04:08:10;6.80;;;4.80;;
22571;SDS011;11452;53.368;14.658;2022-12-07T04:13:15;8.50;;;5.67;;
22571;SDS011;11452;53.368;14.658;2022-12-07T04:18:21;6.93;;;4.80;;
22571;SDS011;11452;53.368;14.658;2022-12-07T04:23:27;7.50;;;5.60;;
22571;SDS011;11452;53.368;14.658;2022-12-07T04:28:32;6.50;;;4.63;;
22571;SDS011;11452;53.368;14.658;2022-12-07T04:33:38;8.10;;;5.07;;
22571;SDS011;11452;53.368;14.658;2022-12-07T04:38:43;8.43;;;4.83;;
22571;SDS011;11452;53.368;14.658;2022-12-07T04:43:48;8.23;;;5.53;;
22571;SDS011;11452;53.368;14.658;2022-12-07T04:48:54;7.77;;;5.20;;
22571;SDS011;11452;53.368;14.658;2022-12-07T04:54:00;7.03;;;4.97;;
22571;SDS011;11452;53.368;14.658;2022-12-07T04:59:06;9.40;;;6.10;;
22571;SDS011;11452;53.368;14.658;2022-12-07T05:04:11;9.33;;;6.07;;
22571;SDS011;11452;53.368;14.658;2022-12-07T05:09:17;9.00;;;5.60;;
22571;SDS011;11452;53.368;14.658;2022-12-07T05:14:23;8.80;;;6.00;;
22571;SDS011;11452;53.368;14.658;2022-12-07T05:19:28;8.33;;;6.00;;
22571;SDS011;11452;53.368;14.658;2022-12-07T05:24:34;9.23;;;5.90;;
22571;SDS011;11452;53.368;14.658;2022-12-07T05:29:39;7.77;;;5.40;;
22571;SDS011;11452;53.368;14.658;2022-12-07T05:34:45;7.90;;;4.97;;
22571;SDS011;11452;53.368;14.658;2022-12-07T05:39:50;9.60;;;6.40;;
22571;SDS011;11452;53.368;14.658;2022-12-07T05:44:56;10.47;;;6.27;;
22571;SDS011;11452;53.368;14.658;2022-12-07T05:50:02;9.50;;;6.23;;
22571;SDS011;11452;53.368;14.658;2022-12-07T05:55:08;9.13;;;5.73;;
22571;SDS011;11452;53.368;14.658;2022-12-07T06:00:14;8.53;;;5.50;;
22571;SDS011;11452;53.368;14.658;2022-12-07T06:05:20;8.77;;;5.00;;
22571;SDS011;11452;53.368;14.658;2022-12-07T06:10:25;7.53;;;5.17;;
22571;SDS011;11452;53.368;14.658;2022-12-07T06:15:32;9.20;;;5.87;;
22571;SDS011;11452;53.368;14.658;2022-12-07T06:20:37;8.43;;;5.40;;
22571;SDS011;11452;53.368;14.658;2022-12-07T06:25:45;6.93;;;4.80;;
22571;SDS011;11452;53.368;14.658;2022-12-07T06:30:59;7.10;;;5.00;;
22571;SDS011;11452;53.368;14.658;2022-12-07T06:36:06;7.77;;;5.00;;
22571;SDS011;11452;53.368;14.658;2022-12-07T06:41:12;6.27;;;4.53;;
22571;SDS011;11452;53.368;14.658;2022-12-07T06:46:17;7.10;;;4.80;;
22571;SDS011;11452;53.368;14.658;2022-12-07T06:51:23;7.40;;;4.80;;
22571;SDS011;11452;53.368;14.658;2022-12-07T06:56:29;8.60;;;5.60;;
22571;SDS011;11452;53.368;14.658;2022-12-07T07:01:35;9.67;;;6.57;;
22571;SDS011;11452;53.368;14.658;2022-12-07T07:06:41;9.30;;;6.13;;
22571;SDS011;11452;53.368;14.658;2022-12-07T07:11:46;11.27;;;6.73;;
22571;SDS011;11452;53.368;14.658;2022-12-07T07:16:52;12.63;;;7.30;;
22571;SDS011;11452;53.368;14.658;2022-12-07T07:21:57;11.37;;;6.73;;
22571;SDS011;11452;53.368;14.658;2022-12-07T07:27:03;12.33;;;7.13;;
22571;SDS011;11452;53.368;14.658;2022-12-07T07:32:08;16.13;;;6.97;;
22571;SDS011;11452;53.368;14.658;2022-12-07T07:37:14;15.93;;;7.67;;
22571;SDS011;11452;53.368;14.658;2022-12-07T07:42:21;13.17;;;7.30;;
22571;SDS011;11452;53.368;14.658;2022-12-07T07:47:26;13.07;;;7.17;;
22571;SDS011;11452;53.368;14.658;2022-12-07T07:52:32;12.27;;;6.87;;
22571;SDS011;11452;53.368;14.658;2022-12-07T07:57:38;12.03;;;7.33;;
22571;SDS011;11452;53.368;14.658;2022-12-07T08:02:44;11.73;;;6.90;;
22571;SDS011;11452;53.368;14.658;2022-12-07T08:07:50;9.40;;;6.10;;
22571;SDS011;11452;53.368;14.658;2022-12-07T08:12:55;11.70;;;7.20;;
22571;SDS011;11452;53.368;14.658;2022-12-07T08:18:17;10.90;;;6.40;;
22571;SDS011;11452;53.368;14.658;2022-12-07T08:23:23;10.00;;;6.47;;
22571;SDS011;11452;53.368;14.658;2022-12-07T08:28:31;12.77;;;6.63;;
22571;SDS011;11452;53.368;14.658;2022-12-07T08:33:36;10.70;;;6.70;;
22571;SDS011;11452;53.368;14.658;2022-12-07T08:38:42;9.73;;;5.77;;
22571;SDS011;11452;53.368;14.658;2022-12-07T08:43:50;10.70;;;7.23;;
22571;SDS011;11452;53.368;14.658;2022-12-07T08:48:57;12.90;;;7.17;;
22571;SDS011;11452;53.368;14.658;2022-12-07T08:54:06;10.13;;;6.83;;
22571;SDS011;11452;53.368;14.658;2022-12-07T08:59:14;9.73;;;6.37;;
22571;SDS011;11452;53.368;14.658;2022-12-07T09:04:24;10.27;;;6.20;;
22571;SDS011;11452;53.368;14.658;2022-12-07T09:09:29;8.40;;;6.07;;
22571;SDS011;11452;53.368;14.658;2022-12-07T09:14:35;9.80;;;5.77;;
22571;SDS011;11452;53.368;14.658;2022-12-07T09:19:41;8.70;;;6.03;;
22571;SDS011;11452;53.368;14.658;2022-12-07T09:24:46;12.10;;;6.30;;
22571;SDS011;11452;53.368;14.658;2022-12-07T09:29:52;11.80;;;6.13;;
22571;SDS011;11452;53.368;14.658;2022-12-07T09:34:57;8.20;;;5.23;;
22571;SDS011;11452;53.368;14.658;2022-12-07T09:40:03;8.33;;;5.77;;
22571;SDS011;11452;53.368;14.658;2022-12-07T09:45:15;7.63;;;5.67;;
22571;SDS011;11452;53.368;14.658;2022-12-07T09:50:30;10.50;;;6.67;;
22571;SDS011;11452;53.368;14.658;2022-12-07T09:55:36;9.90;;;7.13;;
22571;SDS011;11452;53.368;14.658;2022-12-07T10:00:42;10.47;;;6.63;;
22571;SDS011;11452;53.368;14.658;2022-12-07T10:05:49;8.67;;;6.37;;
22571;SDS011;11452;53.368;14.658;2022-12-07T10:10:56;8.53;;;5.97;;
22571;SDS011;11452;53.368;14.658;2022-12-07T10:16:03;7.17;;;5.20;;
22571;SDS011;11452;53.368;14.658;2022-12-07T10:21:23;7.50;;;5.20;;
22571;SDS011;11452;53.368;14.658;2022-12-07T10:26:34;8.13;;;5.67;;
22571;SDS011;11452;53.368;14.658;2022-12-07T10:31:45;8.33;;;5.97;;
22571;SDS011;11452;53.368;14.658;2022-12-07T10:36:53;9.40;;;5.80;;
22571;SDS011;11452;53.368;14.658;2022-12-07T10:42:01;7.33;;;5.53;;
22571;SDS011;11452;53.368;14.658;2022-12-07T11:20:05;11.30;;;6.97;;
22571;SDS011;11452;53.368;14.658;2022-12-07T11:25:27;9.23;;;6.37;;
22571;SDS011;11452;53.368;14.658;2022-12-07T11:30:53;11.20;;;7.67;;
22571;SDS011;11452;53.368;14.658;2022-12-07T11:41:10;10.00;;;7.33;;
22571;SDS011;11452;53.368;14.658;2022-12-07T11:46:17;9.33;;;6.60;;
22571;SDS011;11452;53.368;14.658;2022-12-07T11:51:24;9.33;;;6.43;;
22571;SDS011;11452;53.368;14.658;2022-12-07T11:56:35;9.23;;;7.85;;
22571;SDS011;11452;53.368;14.658;2022-12-07T12:01:57;9.17;;;6.90;;
22571;SDS011;11452;53.368;14.658;2022-12-07T12:07:15;6.93;;;5.63;;
22571;SDS011;11452;53.368;14.658;2022-12-07T12:23:37;6.67;;;4.73;;
22571;SDS011;11452;53.368;14.658;2022-12-07T12:33:56;6.73;;;3.93;;
22571;SDS011;11452;53.368;14.658;2022-12-07T12:54:35;4.03;;;3.47;;
22571;SDS011;11452;53.368;14.658;2022-12-07T12:59:42;3.80;;;3.33;;
22571;SDS011;11452;53.368;14.658;2022-12-07T13:15:35;3.03;;;2.40;;
22571;SDS011;11452;53.368;14.658;2022-12-07T13:31:34;4.47;;;2.57;;
22571;SDS011;11452;53.368;14.658;2022-12-07T13:36:52;4.97;;;2.27;;
22571;SDS011;11452;53.368;14.658;2022-12-07T13:41:58;7.70;;;2.63;;
22571;SDS011;11452;53.368;14.658;2022-12-07T13:47:06;3.30;;;2.80;;
22571;SDS011;11452;53.368;14.658;2022-12-07T13:52:29;2.67;;;2.00;;
22571;SDS011;11452;53.368;14.658;2022-12-07T13:57:35;4.20;;;2.17;;
22571;SDS011;11452;53.368;14.658;2022-12-07T14:08:20;3.90;;;2.53;;
22571;SDS011;11452;53.368;14.658;2022-12-07T14:13:24;4.20;;;2.40;;
22571;SDS011;11452;53.368;14.658;2022-12-07T14:18:39;4.60;;;3.00;;
22571;SDS011;11452;53.368;14.658;2022-12-07T14:23:47;4.33;;;2.43;;
22571;SDS011;11452;53.368;14.658;2022-12-07T14:34:37;3.37;;;2.13;;
22571;SDS011;11452;53.368;14.658;2022-12-07T14:39:42;4.17;;;2.13;;
22571;SDS011;11452;53.368;14.658;2022-12-07T14:44:48;4.77;;;2.73;;
22571;SDS011;11452;53.368;14.658;2022-12-07T14:49:53;3.47;;;2.63;;
22571;SDS011;11452;53.368;14.658;2022-12-07T14:55:00;3.17;;;2.70;;
22571;SDS011;11452;53.368;14.658;2022-12-07T15:00:07;2.60;;;2.40;;
22571;SDS011;11452;53.368;14.658;2022-12-07T15:05:16;4.97;;;2.80;;
22571;SDS011;11452;53.368;14.658;2022-12-07T15:10:23;3.07;;;2.60;;
22571;SDS011;11452;53.368;14.658;2022-12-07T15:15:35;3.23;;;2.73;;
22571;SDS011;11452;53.368;14.658;2022-12-07T15:20:40;5.40;;;2.40;;
22571;SDS011;11452;53.368;14.658;2022-12-07T15:25:47;4.87;;;2.53;;
22571;SDS011;11452;53.368;14.658;2022-12-07T15:30:53;5.87;;;2.90;;
22571;SDS011;11452;53.368;14.658;2022-12-07T15:35:58;3.60;;;2.70;;
22571;SDS011;11452;53.368;14.658;2022-12-07T15:41:04;3.27;;;2.70;;
22571;SDS011;11452;53.368;14.658;2022-12-07T15:46:09;5.10;;;3.30;;
22571;SDS011;11452;53.368;14.658;2022-12-07T15:51:15;5.47;;;3.00;;
22571;SDS011;11452;53.368;14.658;2022-12-07T15:56:22;3.17;;;2.60;;
22571;SDS011;11452;53.368;14.658;2022-12-07T16:01:27;5.83;;;2.97;;
22571;SDS011;11452;53.368;14.658;2022-12-07T16:06:33;3.37;;;2.17;;
22571;SDS011;11452;53.368;14.658;2022-12-07T16:11:38;3.17;;;2.20;;
22571;SDS011;11452;53.368;14.658;2022-12-07T16:16:44;5.30;;;2.37;;
22571;SDS011;11452;53.368;14.658;2022-12-07T16:21:50;2.43;;;1.67;;
22571;SDS011;11452;53.368;14.658;2022-12-07T16:26:55;3.33;;;1.47;;
22571;SDS011;11452;53.368;14.658;2022-12-07T16:32:01;2.60;;;1.60;;
22571;SDS011;11452;53.368;14.658;2022-12-07T16:37:06;3.67;;;2.03;;
22571;SDS011;11452;53.368;14.658;2022-12-07T16:42:12;2.70;;;1.50;;
22571;SDS011;11452;53.368;14.658;2022-12-07T16:47:17;4.30;;;1.73;;
22571;SDS011;11452;53.368;14.658;2022-12-07T16:52:22;3.43;;;1.60;;
22571;SDS011;11452;53.368;14.658;2022-12-07T16:57:28;3.37;;;1.80;;
22571;SDS011;11452;53.368;14.658;2022-12-07T17:02:35;2.80;;;1.73;;
22571;SDS011;11452;53.368;14.658;2022-12-07T17:07:41;2.57;;;1.60;;
22571;SDS011;11452;53.368;14.658;2022-12-07T17:12:47;2.17;;;1.43;;
22571;SDS011;11452;53.368;14.658;2022-12-07T17:17:53;4.40;;;1.60;;
22571;SDS011;11452;53.368;14.658;2022-12-07T17:23:01;4.40;;;1.90;;
22571;SDS011;11452;53.368;14.658;2022-12-07T17:28:06;1.60;;;1.30;;
22571;SDS011;11452;53.368;14.658;2022-12-07T17:33:12;1.40;;;1.27;;
22571;SDS011;11452;53.368;14.658;2022-12-07T17:38:18;3.03;;;1.13;;
22571;SDS011;11452;53.368;14.658;2022-12-07T17:43:23;2.23;;;1.20;;
22571;SDS011;11452;53.368;14.658;2022-12-07T17:48:28;3.03;;;1.30;;
22571;SDS011;11452;53.368;14.658;2022-12-07T17:53:34;3.50;;;1.13;;
22571;SDS011;11452;53.368;14.658;2022-12-07T17:58:39;3.47;;;1.20;;
22571;SDS011;11452;53.368;14.658;2022-12-07T18:03:45;1.83;;;1.10;;
22571;SDS011;11452;53.368;14.658;2022-12-07T18:08:50;2.40;;;1.53;;
22571;SDS011;11452;53.368;14.658;2022-12-07T18:13:56;2.83;;;1.67;;
22571;SDS011;11452;53.368;14.658;2022-12-07T18:19:02;2.83;;;1.67;;
22571;SDS011;11452;53.368;14.658;2022-12-07T18:24:12;3.37;;;1.83;;
22571;SDS011;11452;53.368;14.658;2022-12-07T18:29:19;3.50;;;2.10;;
22571;SDS011;11452;53.368;14.658;2022-12-07T18:34:25;3.50;;;1.57;;
22571;SDS011;11452;53.368;14.658;2022-12-07T18:39:31;3.03;;;1.30;;
22571;SDS011;11452;53.368;14.658;2022-12-07T18:44:37;3.37;;;1.20;;
22571;SDS011;11452;53.368;14.658;2022-12-07T18:49:42;3.90;;;1.07;;
22571;SDS011;11452;53.368;14.658;2022-12-07T18:54:48;3.13;;;1.70;;
22571;SDS011;11452;53.368;14.658;2022-12-07T18:59:53;2.63;;;1.43;;
22571;SDS011;11452;53.368;14.658;2022-12-07T19:04:59;2.47;;;1.83;;
22571;SDS011;11452;53.368;14.658;2022-12-07T19:10:06;2.57;;;1.40;;
22571;SDS011;11452;53.368;14.658;2022-12-07T19:15:12;1.83;;;1.00;;
22571;SDS011;11452;53.368;14.658;2022-12-07T19:20:18;2.67;;;1.10;;
22571;SDS011;11452;53.368;14.658;2022-12-07T19:25:24;1.40;;;1.20;;
22571;SDS011;11452;53.368;14.658;2022-12-07T19:30:29;1.63;;;1.13;;
22571;SDS011;11452;53.368;14.658;2022-12-07T19:35:34;1.90;;;1.10;;
22571;SDS011;11452;53.368;14.658;2022-12-07T19:40:40;1.83;;;1.03;;
22571;SDS011;11452;53.368;14.658;2022-12-07T19:45:45;1.03;;;0.83;;
22571;SDS011;11452;53.368;14.658;2022-12-07T19:50:51;3.30;;;1.00;;
22571;SDS011;11452;53.368;14.658;2022-12-07T19:55:56;1.50;;;0.83;;
22571;SDS011;11452;53.368;14.658;2022-12-07T20:01:02;1.70;;;0.80;;
22571;SDS011;11452;53.368;14.658;2022-12-07T20:06:13;1.20;;;0.90;;
22571;SDS011;11452;53.368;14.658;2022-12-07T20:11:20;1.83;;;1.00;;
22571;SDS011;11452;53.368;14.658;2022-12-07T20:16:45;1.00;;;0.90;;
22571;SDS011;11452;53.368;14.658;2022-12-07T20:21:50;2.03;;;1.10;;
22571;SDS011;11452;53.368;14.658;2022-12-07T20:26:56;0.97;;;0.90;;
22571;SDS011;11452;53.368;14.658;2022-12-07T20:32:01;2.53;;;1.37;;
22571;SDS011;11452;53.368;14.658;2022-12-07T20:37:07;1.67;;;1.00;;
22571;SDS011;11452;53.368;14.658;2022-12-07T20:42:13;1.00;;;0.90;;
22571;SDS011;11452;53.368;14.658;2022-12-07T20:47:36;0.93;;;0.90;;
22571;SDS011;11452;53.368;14.658;2022-12-07T20:52:42;2.30;;;1.00;;
22571;SDS011;11452;53.368;14.658;2022-12-07T20:57:47;1.17;;;1.07;;
22571;SDS011;11452;53.368;14.658;2022-12-07T21:02:53;1.82;;;1.27;;
22571;SDS011;11452;53.368;14.658;2022-12-07T21:08:00;1.23;;;0.90;;
22571;SDS011;11452;53.368;14.658;2022-12-07T21:13:07;1.37;;;1.23;;
22571;SDS011;11452;53.368;14.658;2022-12-07T21:18:12;0.80;;;0.60;;
22571;SDS011;11452;53.368;14.658;2022-12-07T21:23:18;1.37;;;0.90;;
22571;SDS011;11452;53.368;14.658;2022-12-07T21:28:23;1.53;;;1.40;;
22571;SDS011;11452;53.368;14.658;2022-12-07T21:33:35;2.13;;;1.20;;
22571;SDS011;11452;53.368;14.658;2022-12-07T21:38:36;1.90;;;1.23;;
22571;SDS011;11452;53.368;14.658;2022-12-07T21:43:42;3.00;;;1.10;;
22571;SDS011;11452;53.368;14.658;2022-12-07T21:48:52;3.10;;;1.37;;
22571;SDS011;11452;53.368;14.658;2022-12-07T21:54:00;2.30;;;1.40;;
22571;SDS011;11452;53.368;14.658;2022-12-07T21:59:09;2.33;;;1.20;;
22571;SDS011;11452;53.368;14.658;2022-12-07T22:04:20;2.20;;;1.50;;
22571;SDS011;11452;53.368;14.658;2022-12-07T22:09:27;1.83;;;1.37;;
22571;SDS011;11452;53.368;14.658;2022-12-07T22:14:33;1.80;;;1.50;;
22571;SDS011;11452;53.368;14.658;2022-12-07T22:19:56;1.90;;;1.20;;
22571;SDS011;11452;53.368;14.658;2022-12-07T22:25:02;1.70;;;1.27;;
22571;SDS011;11452;53.368;14.658;2022-12-07T22:30:09;3.30;;;1.73;;
22571;SDS011;11452;53.368;14.658;2022-12-07T22:35:16;2.77;;;2.07;;
22571;SDS011;11452;53.368;14.658;2022-12-07T22:40:21;2.70;;;1.60;;
22571;SDS011;11452;53.368;14.658;2022-12-07T22:45:27;3.57;;;1.50;;
22571;SDS011;11452;53.368;14.658;2022-12-07T22:50:33;3.30;;;1.20;;
22571;SDS011;11452;53.368;14.658;2022-12-07T22:55:38;2.57;;;1.33;;
22571;SDS011;11452;53.368;14.658;2022-12-07T23:00:45;1.73;;;1.20;;
22571;SDS011;11452;53.368;14.658;2022-12-07T23:05:50;1.30;;;0.90;;
22571;SDS011;11452;53.368;14.658;2022-12-07T23:10:56;1.53;;;1.40;;
22571;SDS011;11452;53.368;14.658;2022-12-07T23:16:09;1.43;;;1.33;;
22571;SDS011;11452;53.368;14.658;2022-12-07T23:21:16;1.30;;;1.20;;
22571;SDS011;11452;53.368;14.658;2022-12-07T23:26:22;1.93;;;0.90;;
22571;SDS011;11452;53.368;14.658;2022-12-07T23:31:27;2.03;;;1.43;;
22571;SDS011;11452;53.368;14.658;2022-12-07T23:36:33;3.43;;;1.40;;
22571;SDS011;11452;53.368;14.658;2022-12-07T23:41:38;1.80;;;1.17;;
22571;SDS011;11452;53.368;14.658;2022-12-07T23:46:44;2.30;;;1.30;;
22571;SDS011;11452;53.368;14.658;2022-12-07T23:51:49;1.13;;;1.13;;
22571;SDS011;11452;53.368;14.658;2022-12-07T23:56:55;1.30;;;1.20;;
